< < Back
Terminal Aerodrome Forecast


Current Version              Previous Versions:   1  2  3  4  5  6  7  8  9  

Terminal Aerodrome Forecast

896
FTUS44 KHUN 292320
TAFHSV
TAF
KHSV 292320Z 3000/3024 32003KT P6SM FEW050 SCT250
     FM301000 VRB02KT P6SM SCT250
      TEMPO 3010/3013 5SM BR
     FM301400 01008KT P6SM SKC=

Latest METAR

884
SAUS80 KWBC 300200 RRA
MTRHSV
METAR KHSV 300153Z 30004KT 8SM FEW200 BKN250 28/24 A3000 RMK AO2 SLP150
T02780244


USA.gov is the U.S. government's official web portal to all federal, state and local government web resources and services.